Time;durP1;ratioP1;P1;durP2;ratioP2;P2;SDS_P1;SDS_P2;PMS_P1;PMS_P2;Temp;Humidity;BMP_temperature;BMP_pressure;BME280_temperature;BME280_humidity;BME280_pressure;Samples;Min_cycle;Max_cycle;Signal;HPM_P1;HPM_P2
2021/03/25 00:04:47;;;;;;;173.27;61.57;;;;;;;4.84;71.93;101240.64;5011304;58;1140564;-79
2021/03/25 00:09:53;;;;;;;165.63;54.47;;;;;;;4.67;72.41;101237.02;5079019;56;1140636;-77
2021/03/25 00:14:58;;;;;;;195.15;64.87;;;;;;;4.58;72.68;101241.70;5022207;57;1140707;-77
2021/03/25 00:20:08;;;;;;;178.47;59.45;;;;;;;4.60;72.78;101239.02;5012040;58;1140465;-80
2021/03/25 00:25:18;;;;;;;152.37;56.33;;;;;;;4.65;73.08;101233.14;5011018;58;1142816;-78
2021/03/25 00:30:29;;;;;;;221.03;76.53;;;;;;;4.65;72.75;101227.91;5012064;58;1140892;-79
2021/03/25 00:35:36;;;;;;;114.07;48.83;;;;;;;4.64;73.10;101232.75;5012408;58;1140540;-80
2021/03/25 00:40:44;;;;;;;138.73;53.23;;;;;;;4.63;73.27;101227.57;5012484;58;1140680;-78
2021/03/25 00:45:51;;;;;;;103.07;44.17;;;;;;;4.62;73.27;101229.34;5011716;58;1140965;-77
2021/03/25 00:51:01;;;;;;;104.53;44.17;;;;;;;4.58;73.23;101233.02;5003471;57;1150187;-78
2021/03/25 00:56:09;;;;;;;103.00;40.33;;;;;;;4.49;72.97;101222.91;5002176;57;1140993;-75
2021/03/25 01:01:15;;;;;;;89.87;40.33;;;;;;;4.46;72.76;101221.72;5002110;57;1140578;-76
2021/03/25 01:06:21;;;;;;;65.50;31.23;;;;;;;4.45;72.80;101220.86;5002298;57;1140686;-76
2021/03/25 01:11:30;;;;;;;92.37;42.47;;;;;;;4.48;73.08;101219.89;5002075;57;1138356;-79
2021/03/25 01:16:41;;;;;;;97.17;45.90;;;;;;;4.47;72.99;101212.48;5002188;57;1139129;-80
2021/03/25 01:21:47;;;;;;;103.17;44.43;;;;;;;4.33;72.63;101209.59;5002584;57;1138423;-80
2021/03/25 01:26:54;;;;;;;389.50;101.63;;;;;;;4.25;72.99;101206.44;5001996;57;1140681;-77
2021/03/25 01:32:00;;;;;;;126.33;47.77;;;;;;;4.18;73.31;101200.59;5002021;57;1142741;-77
2021/03/25 01:37:06;;;;;;;85.38;34.15;;;;;;;4.17;73.46;101197.57;5001773;58;1141052;-81
2021/03/25 01:42:27;;;;;;;327.43;104.15;;;;;;;4.17;73.46;101197.57;4999005;58;1140946;-75
2021/03/25 01:47:33;;;;;;;283.23;88.33;;;;;;;4.21;73.78;101189.14;5001306;58;1143288;-77
2021/03/25 01:52:58;;;;;;;316.60;95.77;;;;;;;4.19;73.71;101189.20;5001106;57;1140743;-80
2021/03/25 01:58:35;;;;;;;184.67;63.83;;;;;;;4.19;74.06;101189.20;5001335;58;1141231;-76
2021/03/25 02:04:01;;;;;;;139.43;56.50;;;;;;;4.17;74.09;101188.86;4959335;58;1140584;-79
2021/03/25 02:09:29;;;;;;;122.80;50.33;;;;;;;4.07;74.26;101184.47;5001616;58;1140885;-78
2021/03/25 02:15:03;;;;;;;94.03;39.17;;;;;;;4.05;74.37;101185.44;4999708;57;1140423;-79
2021/03/25 02:20:32;;;;;;;113.85;51.05;;;;;;;4.11;74.69;101180.83;5002488;57;1141216;-77
2021/03/25 02:25:43;;;;;;;144.80;59.90;;;;;;;4.16;74.91;101181.47;5001901;57;1140599;-77
2021/03/25 02:31:12;;;;;;;95.42;44.58;;;;;;;4.26;75.34;101181.11;4990701;57;1141504;-78
2021/03/25 02:36:24;;;;;;;103.27;43.07;;;;;;;4.20;74.96;101179.58;5044650;57;1138596;-79
2021/03/25 02:41:34;;;;;;;119.97;55.10;;;;;;;4.07;74.85;101179.69;5075723;57;1141011;-78
2021/03/25 02:46:51;;;;;;;95.40;41.80;;;;;;;3.95;75.15;101177.11;5076579;57;1141490;-79
2021/03/25 02:52:10;;;;;;;132.30;46.68;;;;;;;3.96;75.63;101173.58;5077105;57;1139007;-79
2021/03/25 02:57:30;;;;;;;148.10;54.57;;;;;;;4.05;75.83;101166.66;5053499;57;1142532;-80
2021/03/25 03:02:43;;;;;;;110.33;43.43;;;;;;;4.15;76.01;101164.51;5063983;57;1140599;-80
2021/03/25 03:08:18;;;;;;;81.43;39.60;;;;;;;4.20;76.03;101168.66;5061142;57;1140411;-81
2021/03/25 03:13:27;;;;;;;93.27;38.00;;;;;;;4.18;75.82;101166.55;5064388;57;1138450;-76
2021/03/25 03:18:46;;;;;;;113.83;46.87;;;;;;;4.19;75.72;101170.02;5064422;57;1138372;-75
2021/03/25 03:23:54;;;;;;;120.67;52.13;;;;;;;4.23;75.62;101167.23;5063300;57;1142646;-77
2021/03/25 03:29:05;;;;;;;122.73;52.73;;;;;;;4.17;75.50;101160.06;5063940;57;1141195;-79
2021/03/25 03:34:21;;;;;;;89.70;42.50;;;;;;;4.18;75.82;101167.01;5064115;57;1140985;-74
2021/03/25 03:39:31;;;;;;;80.07;37.33;;;;;;;4.11;75.75;101162.50;5064303;57;1138955;-79
2021/03/25 03:44:45;;;;;;;72.87;34.37;;;;;;;4.04;75.39;101162.79;5064212;57;1139120;-77
2021/03/25 03:50:18;;;;;;;67.50;34.40;;;;;;;3.99;75.36;101172.58;5064094;57;1141005;-80
2021/03/25 03:55:25;;;;;;;82.90;38.80;;;;;;;3.85;75.37;101168.75;5059538;57;1141092;-80
2021/03/25 04:00:44;;;;;;;79.23;42.37;;;;;;;3.86;76.22;101168.30;5064068;57;1138493;-79
2021/03/25 04:05:57;;;;;;;84.65;41.20;;;;;;;3.88;76.25;101159.94;5064030;57;1138493;-77
2021/03/25 04:11:19;;;;;;;80.17;38.98;;;;;;;3.88;76.29;101152.09;5063225;57;1138430;-76
2021/03/25 04:16:29;;;;;;;71.80;37.27;;;;;;;3.77;76.12;101145.13;5064715;57;1138524;-80
2021/03/25 04:21:43;;;;;;;90.37;36.27;;;;;;;3.66;75.83;101155.17;5064900;57;1139127;-78
2021/03/25 04:27:05;;;;;;;;;;;;;;;3.60;75.70;101152.32;5068579;57;1138920;-80
2021/03/25 04:32:11;;;;;;;80.25;40.03;;;;;;;3.60;76.19;101147.55;5074398;57;972011;-78
2021/03/25 04:37:18;;;;;;;83.42;40.92;;;;;;;3.60;76.43;101148.40;5056681;57;1136859;-78
2021/03/25 04:42:24;;;;;;;89.40;39.83;;;;;;;3.60;76.51;101149.70;5016305;57;1138450;-75
2021/03/25 04:47:36;;;;;;;81.03;39.50;;;;;;;3.54;76.18;101146.86;5056768;57;1138355;-76
2021/03/25 04:52:42;;;;;;;72.07;36.13;;;;;;;3.58;76.19;101146.30;5095126;57;1138456;-77
2021/03/25 04:58:00;;;;;;;75.10;37.47;;;;;;;3.57;76.08;101146.35;5018620;57;1138380;-76
2021/03/25 05:03:09;;;;;;;82.85;39.73;;;;;;;3.57;76.21;101148.52;5013741;58;1138530;-75
2021/03/25 05:08:25;;;;;;;80.92;39.83;;;;;;;3.45;75.59;101151.15;4975328;58;1138553;-76
2021/03/25 05:13:40;;;;;;;74.10;37.53;;;;;;;3.30;75.70;101151.73;5013428;58;1139018;-75
2021/03/25 05:18:50;;;;;;;72.07;36.87;;;;;;;3.29;76.00;101151.78;5013405;58;1138940;-76
2021/03/25 05:24:06;;;;;;;87.37;39.77;;;;;;;3.30;75.99;101149.56;5013442;58;1138961;-76
2021/03/25 05:29:14;;;;;;;90.40;41.28;;;;;;;3.33;76.18;101150.77;4841439;60;1138913;-74
2021/03/25 05:34:21;;;;;;;78.30;39.40;;;;;;;3.34;76.31;101153.78;4773170;60;1138770;-75
2021/03/25 05:39:29;;;;;;;88.17;40.47;;;;;;;3.36;76.58;101164.55;4933494;58;1138615;-74
2021/03/25 05:45:10;;;;;;;97.47;40.97;;;;;;;3.35;76.54;101160.27;4916575;58;1139142;-74
2021/03/25 05:50:43;;;;;;;95.25;47.08;;;;;;;3.42;76.54;101156.94;4933614;57;1138790;-74
2021/03/25 05:56:13;;;;;;;95.37;45.80;;;;;;;3.57;77.16;101156.36;4947258;57;1140641;-76
2021/03/25 06:02:08;;;;;;;109.03;54.00;;;;;;;3.72;77.66;101152.30;4992226;58;1138530;-75
2021/03/25 06:07:23;;;;;;;101.85;53.68;;;;;;;3.85;77.85;101162.21;4995291;58;1141273;-76
2021/03/25 06:12:51;;;;;;;109.07;50.03;;;;;;;4.00;78.09;101162.52;4993033;58;1140691;-76
2021/03/25 06:18:27;;;;;;;102.00;50.87;;;;;;;4.18;78.24;101168.31;4758088;60;1140571;-76
2021/03/25 06:24:11;;;;;;;110.33;54.57;;;;;;;4.36;78.22;101164.09;4789883;60;1142979;-76
2021/03/25 06:29:24;;;;;;;138.90;54.60;;;;;;;4.59;78.58;101162.20;4804785;59;1142778;-75
2021/03/25 06:34:56;;;;;;;110.23;56.07;;;;;;;4.72;78.50;101156.45;4805039;59;1141183;-75
2021/03/25 06:40:22;;;;;;;108.77;51.63;;;;;;;4.85;78.76;101157.62;4806063;59;1140818;-74
2021/03/25 06:45:49;;;;;;;101.97;51.70;;;;;;;5.03;78.75;101160.75;4817159;59;1143170;-76
2021/03/25 06:50:55;;;;;;;92.13;39.67;;;;;;;5.24;79.06;101165.02;4778560;60;1140720;-74
2021/03/25 06:56:11;;;;;;;88.12;46.53;;;;;;;5.46;78.95;101167.98;4884854;58;1138999;-77
2021/03/25 07:01:48;;;;;;;78.55;37.67;;;;;;;5.65;78.54;101168.84;4967697;57;1138584;-75
2021/03/25 07:06:57;;;;;;;93.20;46.83;;;;;;;5.83;78.44;101174.97;4987581;57;1138659;-75
2021/03/25 07:12:19;;;;;;;86.63;42.73;;;;;;;6.04;78.16;101179.23;4969914;57;1145878;-76
2021/03/25 07:17:43;;;;;;;92.45;46.60;;;;;;;6.24;78.00;101175.66;5050605;57;1141216;-77
2021/03/25 07:23:14;;;;;;;87.17;43.15;;;;;;;6.49;77.91;101174.81;5029160;57;1138746;-75
2021/03/25 07:28:23;;;;;;;76.10;39.03;;;;;;;6.79;77.63;101172.86;5050261;57;1140700;-76
2021/03/25 07:33:34;;;;;;;87.63;43.97;;;;;;;7.02;76.62;101175.17;5061812;57;1140694;-73
2021/03/25 07:38:42;;;;;;;96.43;49.33;;;;;;;7.18;76.83;101173.89;5060791;57;1138980;-74
2021/03/25 07:44:07;;;;;;;90.40;45.20;;;;;;;7.44;76.80;101177.29;5061813;57;1140933;-73
2021/03/25 07:49:19;;;;;;;80.37;40.90;;;;;;;7.72;76.44;101177.94;5062088;56;1140674;-74
2021/03/25 07:54:43;;;;;;;80.87;39.57;;;;;;;7.98;76.01;101174.70;5062145;57;1141033;-74
2021/03/25 07:59:55;;;;;;;70.70;39.25;;;;;;;8.20;74.70;101164.27;5097727;56;1140855;-73
2021/03/25 08:05:29;;;;;;;82.23;42.70;;;;;;;8.36;74.21;101162.02;5148873;56;1140987;-73
2021/03/25 08:10:44;;;;;;;91.87;48.50;;;;;;;8.61;73.92;101177.70;5149265;56;1141231;-74
2021/03/25 08:16:00;;;;;;;84.37;43.90;;;;;;;8.85;73.85;101170.98;5148101;56;1140942;-73
2021/03/25 08:21:34;;;;;;;75.13;40.30;;;;;;;9.01;72.98;101174.87;5131222;56;1140916;-73
2021/03/25 08:27:21;;;;;;;105.90;62.15;;;;;;;9.12;72.23;101181.19;5148571;56;1141175;-73
2021/03/25 08:32:37;;;;;;;87.43;48.30;;;;;;;9.19;71.83;101182.95;5137008;56;1142701;-73
2021/03/25 08:38:11;;;;;;;77.50;39.47;;;;;;;9.23;71.23;101180.52;5145042;56;1140575;-75
2021/03/25 08:43:23;;;;;;;106.85;50.90;;;;;;;9.27;69.56;101171.47;5148778;56;1140714;-73
2021/03/25 08:48:52;;;;;;;82.85;44.23;;;;;;;9.31;69.40;101172.14;5146000;56;1142559;-73
2021/03/25 08:54:11;;;;;;;70.10;35.40;;;;;;;9.37;68.87;101169.10;5147430;56;1140476;-73
2021/03/25 08:59:42;;;;;;;85.63;43.60;;;;;;;9.54;68.43;101163.62;5147670;56;1141226;-74
2021/03/25 09:05:14;;;;;;;84.60;42.40;;;;;;;9.68;69.16;101161.42;5161495;56;1140501;-73
2021/03/25 09:10:47;;;;;;;98.60;48.68;;;;;;;9.83;67.96;101156.48;5125705;56;1140877;-74
2021/03/25 09:15:56;;;;;;;54.23;29.63;;;;;;;9.97;68.05;101147.66;5032550;57;1140843;-73
2021/03/25 09:21:26;;;;;;;59.80;32.23;;;;;;;10.28;66.65;101150.49;5054963;57;1140607;-73
2021/03/25 09:26:42;;;;;;;94.52;48.13;;;;;;;10.58;66.55;101144.47;5072409;56;1143571;-73
2021/03/25 09:32:07;;;;;;;63.17;33.33;;;;;;;10.85;65.44;101148.35;5067488;56;1143055;-73
2021/03/25 09:37:22;;;;;;;59.93;33.63;;;;;;;11.11;64.40;101139.48;5021481;57;1142952;-73
2021/03/25 09:42:29;;;;;;;59.00;31.83;;;;;;;11.37;61.79;101136.78;4990354;57;1142622;-73
2021/03/25 09:47:38;;;;;;;65.33;38.73;;;;;;;11.54;61.62;101130.66;4989941;57;1142549;-73
2021/03/25 09:53:04;;;;;;;54.17;35.17;;;;;;;11.63;60.76;101131.30;4990294;57;1142630;-73
2021/03/25 09:58:40;;;;;;;57.17;30.30;;;;;;;11.75;60.69;101137.55;4848139;59;1142804;-74
2021/03/25 10:04:25;;;;;;;55.13;31.80;;;;;;;11.87;59.56;101139.80;4929885;58;1142992;-73
2021/03/25 10:09:53;;;;;;;53.30;32.17;;;;;;;12.05;58.52;101127.01;4929650;59;1142659;-74
2021/03/25 10:14:59;;;;;;;54.90;32.33;;;;;;;12.27;57.96;101138.53;4929754;59;1142666;-74
2021/03/25 10:20:07;;;;;;;63.75;37.67;;;;;;;12.37;57.83;101128.58;4928413;58;1143175;-76
2021/03/25 10:25:14;;;;;;;61.63;34.67;;;;;;;12.54;58.65;101128.13;4910986;59;1143187;-74
2021/03/25 10:30:36;;;;;;;63.10;38.67;;;;;;;12.65;56.05;101125.52;4908276;59;1143167;-74
2021/03/25 10:35:53;;;;;;;78.63;39.27;;;;;;;12.71;56.61;101117.07;4980120;58;1142638;-74
2021/03/25 10:41:02;;;;;;;67.10;40.47;;;;;;;12.83;58.19;101117.95;4930444;57;1142840;-74
2021/03/25 10:46:09;;;;;;;72.93;44.73;;;;;;;13.07;57.70;101105.89;4930079;58;1142823;-74
2021/03/25 10:51:21;;;;;;;52.45;31.10;;;;;;;13.22;57.60;101111.35;4998526;58;1142997;-74
2021/03/25 10:56:40;;;;;;;70.27;41.43;;;;;;;13.29;54.31;101108.07;4998078;58;1142761;-74
2021/03/25 11:01:55;;;;;;;63.68;40.15;;;;;;;13.23;56.13;101113.05;4997698;57;1143379;-74
2021/03/25 11:07:19;;;;;;;58.43;36.47;;;;;;;13.43;56.34;101104.34;4919023;58;1142979;-73
2021/03/25 11:12:30;;;;;;;58.00;34.57;;;;;;;13.61;54.04;101094.86;4900843;58;1142987;-74
2021/03/25 11:17:42;;;;;;;65.10;37.43;;;;;;;13.59;54.83;101098.16;4904613;58;1143606;-73
2021/03/25 11:22:51;;;;;;;65.50;40.37;;;;;;;13.49;53.66;101095.02;5093291;56;1143124;-73
2021/03/25 11:28:10;;;;;;;62.37;38.47;;;;;;;13.32;54.65;101095.03;5137680;56;1142716;-74
2021/03/25 11:33:37;;;;;;;69.12;41.80;;;;;;;13.33;55.03;101095.39;4982406;58;1142592;-73
2021/03/25 11:38:45;;;;;;;68.27;39.27;;;;;;;13.40;55.45;101087.80;5160771;56;1142639;-74
2021/03/25 11:43:59;;;;;;;72.73;40.93;;;;;;;13.46;55.78;101093.44;5160881;56;1142925;-74
2021/03/25 11:49:16;;;;;;;;;;;;;;;13.54;54.83;101084.86;5164906;56;1142572;-74
2021/03/25 11:54:32;;;;;;;77.00;43.87;;;;;;;13.66;55.02;101083.86;5174261;56;975892;-74
2021/03/25 11:59:42;;;;;;;75.93;41.30;;;;;;;13.72;54.90;101072.26;5160925;56;1140570;-74
2021/03/25 12:04:49;;;;;;;56.43;34.80;;;;;;;13.78;53.12;101072.70;5160813;56;1142651;-74
2021/03/25 12:10:20;;;;;;;74.53;41.73;;;;;;;13.79;54.16;101071.25;5157552;56;1142616;-74
2021/03/25 12:15:26;;;;;;;58.08;33.88;;;;;;;13.94;53.12;101062.01;5064837;57;1143075;-74
2021/03/25 12:20:39;;;;;;;81.73;45.10;;;;;;;13.94;53.00;101063.34;5137750;56;1142750;-76
2021/03/25 12:25:48;;;;;;;67.80;40.00;;;;;;;13.92;54.35;101056.45;5092759;56;1142645;-76
2021/03/25 12:30:54;;;;;;;60.13;34.90;;;;;;;13.86;53.85;101055.16;5082357;56;1142484;-77
2021/03/25 12:36:03;;;;;;;56.90;34.97;;;;;;;13.94;53.76;101059.34;5117350;56;1142682;-75
2021/03/25 12:41:12;;;;;;;54.83;31.43;;;;;;;14.07;54.81;101064.00;5117751;56;1142962;-77
2021/03/25 12:46:17;;;;;;;61.60;36.47;;;;;;;14.14;53.28;101049.72;5120274;56;1142889;-77
2021/03/25 12:51:24;;;;;;;47.20;29.00;;;;;;;14.09;53.54;101051.42;5118831;56;1143207;-76
2021/03/25 12:56:36;;;;;;;61.93;38.10;;;;;;;14.08;53.58;101046.22;5109962;56;1142878;-77
2021/03/25 13:01:42;;;;;;;55.03;33.27;;;;;;;14.05;53.15;101039.34;5112583;56;1143053;-75
2021/03/25 13:06:49;;;;;;;55.07;33.20;;;;;;;14.08;52.99;101044.41;5081664;56;1143106;-77
2021/03/25 13:11:54;;;;;;;57.03;30.87;;;;;;;14.14;52.04;101041.73;5089933;57;1143352;-76
2021/03/25 13:17:00;;;;;;;56.33;31.57;;;;;;;14.18;51.46;101041.84;5089675;57;1142734;-75
2021/03/25 13:22:06;;;;;;;56.30;35.80;;;;;;;14.04;50.74;101036.84;5089657;57;1142710;-76
2021/03/25 13:27:12;;;;;;;56.90;32.87;;;;;;;13.98;52.04;101038.67;5089856;57;1142904;-76
2021/03/25 13:32:19;;;;;;;46.60;29.57;;;;;;;13.85;50.57;101044.17;5089791;57;1143113;-77
2021/03/25 13:37:24;;;;;;;65.13;36.20;;;;;;;13.81;52.58;101036.08;5089915;57;1143136;-77
2021/03/25 13:42:30;;;;;;;58.70;33.63;;;;;;;14.04;52.58;101024.88;5089437;57;1143081;-77
2021/03/25 13:47:35;;;;;;;56.97;33.57;;;;;;;14.34;51.70;101032.08;5089345;57;1143194;-75
2021/03/25 13:52:42;;;;;;;56.97;35.97;;;;;;;14.60;51.52;101020.06;5089380;57;1143174;-76
2021/03/25 13:57:47;;;;;;;46.10;24.63;;;;;;;14.83;49.35;101019.38;5089341;57;1142812;-76
2021/03/25 14:02:55;;;;;;;50.52;30.40;;;;;;;14.97;49.40;101019.52;5089272;56;1142794;-76
2021/03/25 14:08:04;;;;;;;58.60;38.40;;;;;;;15.05;49.16;101005.87;5089238;57;1142519;-75
2021/03/25 14:13:12;;;;;;;56.03;33.03;;;;;;;15.16;49.45;101000.91;5089867;57;1142584;-75
2021/03/25 14:18:40;;;;;;;64.57;36.90;;;;;;;15.15;47.50;101008.55;5089344;57;1142669;-76
2021/03/25 14:23:46;;;;;;;60.50;36.33;;;;;;;15.12;47.79;101008.33;4923868;58;1142679;-72
2021/03/25 14:28:52;;;;;;;56.80;33.37;;;;;;;15.12;49.07;101002.99;4923995;58;1142672;-75
2021/03/25 14:33:58;;;;;;;51.27;36.83;;;;;;;15.17;48.25;101001.27;4923920;58;1142710;-75
2021/03/25 14:39:04;;;;;;;78.93;45.33;;;;;;;15.16;49.58;100998.24;4923786;58;1142880;-75
2021/03/25 14:44:10;;;;;;;79.90;40.57;;;;;;;15.10;49.50;101002.80;4925739;59;1143672;-76
2021/03/25 14:49:15;;;;;;;76.40;44.58;;;;;;;15.06;49.99;100998.23;5074859;57;1143110;-75
2021/03/25 14:54:22;;;;;;;50.25;32.33;;;;;;;15.10;50.77;100996.14;5102830;57;1143324;-74
2021/03/25 14:59:28;;;;;;;66.20;39.73;;;;;;;15.08;49.25;100998.09;5102668;57;1143220;-74
2021/03/25 15:04:33;;;;;;;54.53;32.53;;;;;;;15.00;49.67;101000.58;5102401;57;1143124;-75
2021/03/25 15:09:39;;;;;;;58.13;36.95;;;;;;;14.94;49.83;100996.66;5102661;57;1143291;-74
2021/03/25 15:14:45;;;;;;;65.73;40.07;;;;;;;14.72;50.03;100995.52;5102679;57;1143148;-74
2021/03/25 15:19:50;;;;;;;70.73;40.77;;;;;;;14.61;50.47;100997.79;5099162;56;1142919;-74
2021/03/25 15:24:56;;;;;;;60.30;37.93;;;;;;;14.49;51.15;100996.68;5111235;56;1142705;-74
2021/03/25 15:30:01;;;;;;;110.83;46.73;;;;;;;14.47;51.47;101005.28;5141387;56;1142669;-75
2021/03/25 15:35:09;;;;;;;113.07;62.00;;;;;;;14.46;51.63;100995.12;5184469;56;1144835;-75
2021/03/25 15:40:16;;;;;;;84.90;46.25;;;;;;;14.46;51.81;101003.59;5185655;56;1145791;-75
2021/03/25 15:45:23;;;;;;;87.95;44.53;;;;;;;14.41;51.92;100998.66;5042831;56;1143420;-74
2021/03/25 15:50:30;;;;;;;75.33;46.20;;;;;;;14.38;52.13;101005.05;5004757;58;1143167;-74
2021/03/25 15:55:37;;;;;;;64.10;39.40;;;;;;;14.27;52.31;100998.48;5005459;58;1143029;-74
2021/03/25 16:00:42;;;;;;;124.50;51.13;;;;;;;14.24;52.60;101001.88;5005351;58;1143042;-74
2021/03/25 16:05:48;;;;;;;120.13;54.93;;;;;;;14.22;52.82;101006.00;5005176;58;1145164;-75
2021/03/25 16:10:54;;;;;;;71.77;39.93;;;;;;;14.19;52.94;100999.64;5005264;58;1144916;-75
2021/03/25 16:16:00;;;;;;;61.63;37.37;;;;;;;14.15;53.07;101001.34;5015338;56;1142993;-74
2021/03/25 16:21:07;;;;;;;69.27;37.53;;;;;;;14.08;53.31;100997.86;5126647;56;1142859;-74
2021/03/25 16:26:21;;;;;;;78.97;39.50;;;;;;;14.03;53.70;100995.26;5013249;56;1142898;-75
2021/03/25 16:31:26;;;;;;;100.73;48.33;;;;;;;14.04;54.43;100998.27;4987613;57;1143043;-75
2021/03/25 16:36:32;;;;;;;109.57;54.03;;;;;;;14.05;54.76;100993.31;5061628;56;1144816;-75
2021/03/25 16:41:38;;;;;;;127.10;59.43;;;;;;;14.01;55.23;100995.38;5015309;57;1144767;-74
2021/03/25 16:46:43;;;;;;;108.67;49.03;;;;;;;13.99;55.37;100998.66;5011115;57;1145059;-76
2021/03/25 16:51:49;;;;;;;115.30;55.00;;;;;;;13.92;55.89;100992.63;4983212;57;1145046;-76
2021/03/25 16:56:54;;;;;;;175.87;74.27;;;;;;;13.80;56.11;101001.16;4959709;57;1145083;-76
2021/03/25 17:02:00;;;;;;;176.70;69.50;;;;;;;13.71;56.47;101013.41;4921363;57;1145291;-80
2021/03/25 17:07:06;;;;;;;175.83;74.73;;;;;;;13.61;56.96;101015.12;4989131;57;1144962;-76
2021/03/25 17:12:13;;;;;;;211.30;85.26;;;;;;;13.51;57.23;101016.02;5024105;57;1145058;-77
2021/03/25 17:17:18;;;;;;;212.15;89.58;;;;;;;13.43;57.48;101018.47;5007143;57;1145334;-75
2021/03/25 17:22:24;;;;;;;140.85;60.45;;;;;;;13.39;57.91;101019.20;5009170;57;1145604;-76
2021/03/25 17:27:30;;;;;;;150.57;61.20;;;;;;;13.35;57.78;101023.06;4946693;57;1145369;-76
2021/03/25 17:32:36;;;;;;;177.57;70.37;;;;;;;13.29;57.92;101032.36;4939202;58;1145189;-75
2021/03/25 17:37:41;;;;;;;150.17;59.37;;;;;;;13.25;58.38;101033.60;4926297;58;1145036;-74
2021/03/25 17:42:47;;;;;;;168.77;63.70;;;;;;;13.12;58.50;101038.66;4933758;58;1145164;-76
2021/03/25 17:47:52;;;;;;;183.07;78.87;;;;;;;13.00;58.78;101041.30;4997636;57;1145066;-76
2021/03/25 17:52:58;;;;;;;244.30;90.80;;;;;;;12.96;59.18;101044.34;4997573;57;1145092;-76
2021/03/25 17:58:05;;;;;;;309.30;127.40;;;;;;;12.91;59.33;101051.34;4993945;57;1145310;-77
2021/03/25 18:03:17;;;;;;;246.23;106.00;;;;;;;12.85;59.58;101054.46;4997307;57;1147308;-76
2021/03/25 18:08:24;;;;;;;242.70;111.85;;;;;;;12.72;59.49;101063.03;4995584;57;1147132;-75
2021/03/25 18:13:36;;;;;;;267.16;122.84;;;;;;;12.62;59.71;101064.23;5000337;57;1147484;-76
2021/03/25 18:18:42;;;;;;;246.80;122.27;;;;;;;12.60;59.93;101066.16;4994995;57;1147095;-77
2021/03/25 18:23:48;;;;;;;299.00;142.40;;;;;;;12.62;60.26;101070.87;4997211;57;1147248;-75
2021/03/25 18:28:55;;;;;;;270.40;131.53;;;;;;;12.58;60.31;101073.39;5021509;56;1147241;-76
2021/03/25 18:34:00;;;;;;;283.63;141.53;;;;;;;12.53;60.56;101083.50;5064467;56;1147164;-76
2021/03/25 18:39:06;;;;;;;292.93;140.53;;;;;;;12.46;60.80;101079.64;4977642;57;1147188;-77
2021/03/25 18:44:12;;;;;;;306.73;145.17;;;;;;;12.42;60.94;101081.31;4960287;57;1147468;-76
2021/03/25 18:49:18;;;;;;;307.77;137.70;;;;;;;12.37;61.14;101077.70;4944529;58;1146985;-77
2021/03/25 18:54:24;;;;;;;317.27;140.97;;;;;;;12.33;61.22;101084.20;4959044;57;1147106;-74
2021/03/25 18:59:29;;;;;;;367.27;137.73;;;;;;;12.28;61.40;101082.36;4986801;57;1146922;-76
2021/03/25 19:04:35;;;;;;;260.83;120.63;;;;;;;12.19;61.54;101097.17;5008884;57;1147080;-76
2021/03/25 19:09:41;;;;;;;212.07;103.77;;;;;;;12.13;61.61;101093.64;5043417;58;1146949;-75
2021/03/25 19:14:47;;;;;;;219.30;105.13;;;;;;;12.02;61.18;101103.37;5026411;56;1147354;-76
2021/03/25 19:19:55;;;;;;;235.97;112.20;;;;;;;11.95;61.58;101098.98;4991866;57;1147539;-75
2021/03/25 19:25:00;;;;;;;175.57;82.70;;;;;;;11.88;61.59;101102.59;4989027;57;1147098;-76
2021/03/25 19:30:07;;;;;;;158.40;80.13;;;;;;;11.71;61.27;101112.22;4958909;58;1145152;-74
2021/03/25 19:35:16;;;;;;;180.40;92.73;;;;;;;11.52;61.46;101111.37;4988857;58;1144916;-74
2021/03/25 19:40:26;;;;;;;180.10;95.50;;;;;;;11.52;61.99;101108.72;4808318;58;1144638;-75
2021/03/25 19:45:32;;;;;;;190.80;102.35;;;;;;;11.52;62.18;101112.70;4912804;58;1144794;-77
2021/03/25 19:50:39;;;;;;;200.83;108.43;;;;;;;11.43;62.24;101117.34;4955770;57;1146763;-75
2021/03/25 19:55:45;;;;;;;201.67;99.17;;;;;;;11.40;62.54;101122.00;4909406;58;1146693;-76
2021/03/25 20:00:51;;;;;;;194.93;81.53;;;;;;;11.40;62.58;101121.53;4942811;58;1144905;-76
2021/03/25 20:05:58;;;;;;;190.50;87.60;;;;;;;11.24;62.31;101124.89;4956949;57;1145204;-73
2021/03/25 20:11:08;;;;;;;195.40;87.40;;;;;;;11.08;62.57;101138.36;4947628;58;1145278;-74
2021/03/25 20:16:15;;;;;;;197.07;95.90;;;;;;;10.98;63.14;101138.64;4944115;57;1145162;-73
2021/03/25 20:21:25;;;;;;;209.00;106.50;;;;;;;11.01;63.34;101137.55;4993683;57;1145132;-75
2021/03/25 20:26:35;;;;;;;190.90;97.78;;;;;;;11.05;63.39;101141.69;4987787;58;1147401;-72
2021/03/25 20:31:43;;;;;;;158.67;82.67;;;;;;;11.04;63.39;101141.32;5036555;57;1144879;-75
2021/03/25 20:36:49;;;;;;;125.97;68.70;;;;;;;11.03;63.55;101144.91;5075226;57;1144981;-73
2021/03/25 20:41:54;;;;;;;151.10;86.93;;;;;;;10.99;63.49;101144.78;5080957;57;1144868;-74
2021/03/25 20:47:00;;;;;;;118.97;67.43;;;;;;;10.97;63.60;101141.39;5080442;57;1144817;-74
2021/03/25 20:52:07;;;;;;;104.23;60.07;;;;;;;10.94;63.44;101147.73;5081236;57;1144849;-74
2021/03/25 20:57:12;;;;;;;88.47;49.17;;;;;;;10.67;63.09;101154.92;5077660;57;1144850;-74
2021/03/25 21:02:18;;;;;;;88.87;50.37;;;;;;;10.50;63.59;101157.38;5053027;57;1142799;-74
2021/03/25 21:07:24;;;;;;;104.87;58.58;;;;;;;10.58;64.11;101155.05;5063770;57;1143394;-73
2021/03/25 21:12:29;;;;;;;97.65;59.33;;;;;;;10.69;64.36;101155.67;5081557;57;1145118;-75
